Time,TemperatureF,DewpointF,PressureIn,WindDirection,WindDirectionDegrees,WindSpeedMPH,WindSpeedGustMPH,Humidity,HourlyPrecipIn,Conditions,Clouds,dailyrainin,SoftwareType,DateUTC
2013-10-26 00:07:00,29.9,27.0,30.13,WSW,246,3.0,3.0,90,0.00,,,0.00,weatherlink.com 1.10,2013-10-26 04:07:00,
2013-10-26 00:22:00,32.6,28.0,30.14,West,270,0.0,4.0,84,0.00,,,0.00,weatherlink.com 1.10,2013-10-26 04:22:00,
2013-10-26 00:37:00,34.1,29.0,30.14,West,272,0.0,8.0,82,0.00,,,0.00,weatherlink.com 1.10,2013-10-26 04:37:00,
2013-10-26 00:52:00,34.9,29.0,30.14,WSW,243,1.0,7.0,80,0.00,,,0.00,weatherlink.com 1.10,2013-10-26 04:52:00,
2013-10-26 01:07:00,35.3,29.0,30.14,WSW,240,0.0,4.0,79,0.00,,,0.00,weatherlink.com 1.10,2013-10-26 05:07:00,
2013-10-26 01:22:00,34.7,29.0,30.14,SW,227,0.0,1.0,80,0.00,,,0.00,weatherlink.com 1.10,2013-10-26 05:22:00,
2013-10-26 01:37:00,34.0,29.0,30.14,West,281,0.0,1.0,82,0.00,,,0.00,weatherlink.com 1.10,2013-10-26 05:37:00,
2013-10-26 01:52:00,32.3,29.0,30.14,ESE,122,0.0,0.0,86,0.00,,,0.00,weatherlink.com 1.10,2013-10-26 05:52:00,
2013-10-26 02:07:00,32.9,29.0,30.14,SSW,211,0.0,2.0,86,0.00,,,0.00,weatherlink.com 1.10,2013-10-26 06:07:00,
2013-10-26 02:22:00,34.1,30.0,30.14,WNW,292,0.0,3.0,85,0.00,,,0.00,weatherlink.com 1.10,2013-10-26 06:22:00,
2013-10-26 02:37:00,33.4,30.0,30.14,NE,53,0.0,0.0,86,0.00,,,0.00,weatherlink.com 1.10,2013-10-26 06:37:00,
2013-10-26 02:52:00,34.3,30.0,30.14,West,260,0.0,4.0,85,0.00,,,0.00,weatherlink.com 1.10,2013-10-26 06:52:00,
2013-10-26 03:07:00,34.4,30.0,30.14,SSW,203,2.0,3.0,84,0.00,,,0.00,weatherlink.com 1.10,2013-10-26 07:07:00,
2013-10-26 03:22:00,33.0,30.0,30.14,SSW,197,0.0,1.0,87,0.00,,,0.00,weatherlink.com 1.10,2013-10-26 07:22:00,
2013-10-26 03:37:00,32.1,29.0,30.14,ESE,105,0.0,1.0,89,0.00,,,0.00,weatherlink.com 1.10,2013-10-26 07:37:00,
2013-10-26 03:52:00,31.7,29.0,30.13,ESE,122,0.0,1.0,91,0.00,,,0.00,weatherlink.com 1.10,2013-10-26 07:52:00,
2013-10-26 04:07:00,30.6,28.0,30.13,ESE,122,0.0,0.0,91,0.00,,,0.00,weatherlink.com 1.10,2013-10-26 08:07:00,
2013-10-26 04:22:00,30.1,28.0,30.13,ESE,121,0.0,0.0,93,0.00,,,0.00,weatherlink.com 1.10,2013-10-26 08:22:00,
2013-10-26 04:37:00,29.8,28.0,30.13,ESE,122,0.0,0.0,93,0.00,,,0.00,weatherlink.com 1.10,2013-10-26 08:37:00,
2013-10-26 04:52:00,29.7,28.0,30.13,ESE,120,0.0,0.0,94,0.00,,,0.00,weatherlink.com 1.10,2013-10-26 08:52:00,
2013-10-26 05:07:00,28.6,27.0,30.13,ESE,120,0.0,0.0,94,0.00,,,0.00,weatherlink.com 1.10,2013-10-26 09:07:00,
2013-10-26 05:22:00,28.1,27.0,30.13,ESE,120,0.0,0.0,94,0.00,,,0.00,weatherlink.com 1.10,2013-10-26 09:22:00,
2013-10-26 05:37:00,28.1,27.0,30.13,ESE,120,0.0,0.0,95,0.00,,,0.00,weatherlink.com 1.10,2013-10-26 09:37:00,
2013-10-26 05:52:00,27.9,27.0,30.13,ESE,120,0.0,0.0,95,0.00,,,0.00,weatherlink.com 1.10,2013-10-26 09:52:00,
2013-10-26 06:07:00,27.9,27.0,30.13,South,191,0.0,1.0,96,0.00,,,0.00,weatherlink.com 1.10,2013-10-26 10:07:00,
2013-10-26 06:22:00,30.2,30.0,30.13,SSW,208,0.0,1.0,97,0.00,,,0.00,weatherlink.com 1.10,2013-10-26 10:22:00,
2013-10-26 06:37:00,31.5,31.0,30.13,SW,228,2.0,2.0,96,0.00,,,0.00,weatherlink.com 1.10,2013-10-26 10:37:00,
2013-10-26 06:52:00,31.5,30.0,30.12,SE,139,0.0,0.0,94,0.00,,,0.00,weatherlink.com 1.10,2013-10-26 10:52:00,
2013-10-26 07:07:00,31.4,30.0,30.12,West,278,0.0,0.0,95,0.00,,,0.00,weatherlink.com 1.10,2013-10-26 11:07:00,
2013-10-26 07:22:00,31.3,30.0,30.12,NE,41,0.0,0.0,94,0.00,,,0.00,weatherlink.com 1.10,2013-10-26 11:22:00,
2013-10-26 07:37:00,31.1,30.0,30.12,ESE,108,1.0,2.0,95,0.00,,,0.00,weatherlink.com 1.10,2013-10-26 11:37:00,
2013-10-26 07:53:00,31.2,30.0,30.12,SE,146,0.0,1.0,94,0.00,,,0.00,weatherlink.com 1.10,2013-10-26 11:53:00,
2013-10-26 08:08:00,32.1,31.0,30.12,SSE,149,0.0,0.0,94,0.00,,,0.00,weatherlink.com 1.10,2013-10-26 12:08:00,
2013-10-26 08:23:00,34.5,33.0,30.11,SSE,148,0.0,0.0,92,0.00,,,0.00,weatherlink.com 1.10,2013-10-26 12:23:00,
2013-10-26 08:38:00,36.9,33.0,30.12,SW,214,4.0,5.0,86,0.00,,,0.00,weatherlink.com 1.10,2013-10-26 12:38:00,
2013-10-26 08:53:00,38.7,33.0,30.11,SW,229,1.0,3.0,81,0.00,,,0.00,weatherlink.com 1.10,2013-10-26 12:53:00,
2013-10-26 09:08:00,40.4,34.0,30.11,ENE,72,0.0,4.0,77,0.00,,,0.00,weatherlink.com 1.10,2013-10-26 13:08:00,
2013-10-26 09:23:00,41.3,34.0,30.11,West,274,1.0,4.0,76,0.00,,,0.00,weatherlink.com 1.10,2013-10-26 13:23:00,
2013-10-26 09:38:00,43.3,35.0,30.10,West,259,1.0,8.0,72,0.00,,,0.00,weatherlink.com 1.10,2013-10-26 13:38:00,
2013-10-26 09:53:00,42.6,33.0,30.09,SW,231,4.0,11.0,70,0.00,,,0.00,weatherlink.com 1.10,2013-10-26 13:53:00,
2013-10-26 10:08:00,42.6,34.0,30.08,WNW,293,2.0,7.0,71,0.00,,,0.00,weatherlink.com 1.10,2013-10-26 14:08:00,
2013-10-26 10:23:00,42.3,34.0,30.08,ENE,75,2.0,7.0,71,0.00,,,0.00,weatherlink.com 1.10,2013-10-26 14:23:00,
2013-10-26 10:38:00,42.8,34.0,30.07,SE,136,0.0,5.0,71,0.00,,,0.00,weatherlink.com 1.10,2013-10-26 14:38:00,
2013-10-26 10:53:00,43.2,33.0,30.07,NW,325,0.0,5.0,67,0.00,,,0.00,weatherlink.com 1.10,2013-10-26 14:53:00,
2013-10-26 11:08:00,43.8,33.0,30.06,SE,146,1.0,6.0,66,0.00,,,0.00,weatherlink.com 1.10,2013-10-26 15:08:00,
2013-10-26 11:23:00,45.2,31.0,30.05,SW,224,4.0,12.0,57,0.00,,,0.00,weatherlink.com 1.10,2013-10-26 15:23:00,
2013-10-26 11:38:00,45.5,30.0,30.05,SW,222,4.0,7.0,55,0.00,,,0.00,weatherlink.com 1.10,2013-10-26 15:38:00,
2013-10-26 11:53:00,47.6,29.0,30.04,NNW,338,1.0,14.0,49,0.00,,,0.00,weatherlink.com 1.10,2013-10-26 15:53:00,
2013-10-26 12:08:00,46.9,27.0,30.03,WSW,257,8.0,15.0,47,0.00,,,0.00,weatherlink.com 1.10,2013-10-26 16:08:00,
2013-10-26 12:23:00,47.3,29.0,30.02,ESE,117,4.0,13.0,49,0.00,,,0.00,weatherlink.com 1.10,2013-10-26 16:23:00,
2013-10-26 12:38:00,47.4,28.0,30.02,West,264,8.0,19.0,47,0.00,,,0.00,weatherlink.com 1.10,2013-10-26 16:38:00,
2013-10-26 12:53:00,47.6,30.0,30.00,West,266,5.0,15.0,50,0.00,,,0.00,weatherlink.com 1.10,2013-10-26 16:53:00,
2013-10-26 13:08:00,48.4,30.0,30.00,East,89,1.0,11.0,49,0.00,,,0.00,weatherlink.com 1.10,2013-10-26 17:08:00,
2013-10-26 13:24:00,48.9,30.0,29.99,South,188,5.0,10.0,49,0.00,,,0.00,weatherlink.com 1.10,2013-10-26 17:24:00,
2013-10-26 13:39:00,49.3,29.0,29.98,West,260,2.0,11.0,46,0.00,,,0.00,weatherlink.com 1.10,2013-10-26 17:39:00,
2013-10-26 13:54:00,49.1,29.0,29.96,SSW,208,5.0,16.0,46,0.00,,,0.00,weatherlink.com 1.10,2013-10-26 17:54:00,
2013-10-26 14:09:00,48.4,29.0,29.96,WNW,288,7.0,11.0,47,0.00,,,0.00,weatherlink.com 1.10,2013-10-26 18:09:00,
2013-10-26 14:24:00,49.2,28.0,29.95,WSW,253,7.0,15.0,44,0.00,,,0.00,weatherlink.com 1.10,2013-10-26 18:24:00,
2013-10-26 14:39:00,49.3,29.0,29.95,SSW,210,6.0,11.0,45,0.00,,,0.00,weatherlink.com 1.10,2013-10-26 18:39:00,
2013-10-26 14:54:00,50.1,28.0,29.94,WSW,248,4.0,13.0,43,0.00,,,0.00,weatherlink.com 1.10,2013-10-26 18:54:00,
2013-10-26 15:09:00,50.3,28.0,29.94,ENE,60,4.0,12.0,43,0.00,,,0.00,weatherlink.com 1.10,2013-10-26 19:09:00,
2013-10-26 15:24:00,49.8,28.0,29.93,North,353,3.0,13.0,44,0.00,,,0.00,weatherlink.com 1.10,2013-10-26 19:24:00,
2013-10-26 15:39:00,50.1,28.0,29.92,SSW,204,4.0,15.0,43,0.00,,,0.00,weatherlink.com 1.10,2013-10-26 19:39:00,
2013-10-26 15:54:00,50.0,28.0,29.91,ESE,107,3.0,12.0,43,0.00,,,0.00,weatherlink.com 1.10,2013-10-26 19:54:00,
2013-10-26 16:09:00,49.5,28.0,29.91,East,86,2.0,12.0,44,0.00,,,0.00,weatherlink.com 1.10,2013-10-26 20:09:00,
2013-10-26 16:24:00,48.9,28.0,29.90,WNW,294,2.0,14.0,44,0.00,,,0.00,weatherlink.com 1.10,2013-10-26 20:24:00,
2013-10-26 16:39:00,48.7,27.0,29.90,WSW,241,9.0,13.0,43,0.00,,,0.00,weatherlink.com 1.10,2013-10-26 20:39:00,
2013-10-26 16:54:00,48.5,27.0,29.90,WSW,248,5.0,12.0,43,0.00,,,0.00,weatherlink.com 1.10,2013-10-26 20:54:00,
2013-10-26 17:09:00,48.2,26.0,29.89,SW,231,5.0,11.0,43,0.00,,,0.00,weatherlink.com 1.10,2013-10-26 21:09:00,
2013-10-26 17:24:00,47.6,27.0,29.89,SW,226,1.0,7.0,45,0.00,,,0.00,weatherlink.com 1.10,2013-10-26 21:24:00,
2013-10-26 17:39:00,46.8,27.0,29.89,ESE,120,1.0,9.0,46,0.00,,,0.00,weatherlink.com 1.10,2013-10-26 21:39:00,
2013-10-26 17:54:00,46.3,27.0,29.89,West,264,3.0,4.0,47,0.00,,,0.00,weatherlink.com 1.10,2013-10-26 21:54:00,
2013-10-26 18:09:00,46.1,27.0,29.89,South,177,2.0,7.0,48,0.00,,,0.00,weatherlink.com 1.10,2013-10-26 22:09:00,
2013-10-26 18:24:00,46.0,27.0,29.89,WSW,245,2.0,3.0,48,0.00,,,0.00,weatherlink.com 1.10,2013-10-26 22:24:00,
2013-10-26 18:39:00,45.9,29.0,29.89,East,96,4.0,10.0,51,0.00,,,0.00,weatherlink.com 1.10,2013-10-26 22:39:00,
2013-10-26 18:54:00,45.7,29.0,29.90,ESE,106,0.0,9.0,52,0.00,,,0.00,weatherlink.com 1.10,2013-10-26 22:54:00,
2013-10-26 19:09:00,45.4,29.0,29.90,WSW,243,1.0,8.0,53,0.00,,,0.00,weatherlink.com 1.10,2013-10-26 23:09:00,
2013-10-26 19:24:00,45.0,29.0,29.90,WNW,291,1.0,5.0,54,0.00,,,0.00,weatherlink.com 1.10,2013-10-26 23:24:00,
2013-10-26 19:39:00,44.8,30.0,29.89,SE,131,1.0,5.0,56,0.00,,,0.00,weatherlink.com 1.10,2013-10-26 23:39:00,
2013-10-26 19:54:00,45.0,30.0,29.89,ENE,78,2.0,8.0,56,0.00,,,0.00,weatherlink.com 1.10,2013-10-26 23:54:00,
2013-10-26 20:09:00,45.1,30.0,29.89,WSW,238,2.0,8.0,56,0.00,,,0.00,weatherlink.com 1.10,2013-10-27 00:09:00,
2013-10-26 20:24:00,45.2,30.0,29.88,SW,228,3.0,7.0,56,0.00,,,0.00,weatherlink.com 1.10,2013-10-27 00:24:00,
2013-10-26 20:39:00,45.4,30.0,29.88,WNW,296,0.0,7.0,56,0.00,,,0.00,weatherlink.com 1.10,2013-10-27 00:39:00,
2013-10-26 20:54:00,45.4,30.0,29.88,SE,143,2.0,5.0,56,0.00,,,0.00,weatherlink.com 1.10,2013-10-27 00:54:00,
2013-10-26 21:09:00,45.4,30.0,29.88,WNW,296,1.0,9.0,56,0.00,,,0.00,weatherlink.com 1.10,2013-10-27 01:09:00,
2013-10-26 21:24:00,45.5,30.0,29.88,SSE,160,2.0,9.0,56,0.00,,,0.00,weatherlink.com 1.10,2013-10-27 01:24:00,
2013-10-26 21:39:00,45.9,30.0,29.88,West,277,3.0,9.0,54,0.00,,,0.00,weatherlink.com 1.10,2013-10-27 01:39:00,
2013-10-26 21:54:00,46.0,30.0,29.88,WNW,293,2.0,10.0,55,0.00,,,0.00,weatherlink.com 1.10,2013-10-27 01:54:00,
2013-10-26 22:09:00,45.9,31.0,29.88,SW,231,3.0,11.0,56,0.00,,,0.00,weatherlink.com 1.10,2013-10-27 02:09:00,
2013-10-26 22:24:00,45.6,31.0,29.88,East,85,4.0,7.0,58,0.00,,,0.00,weatherlink.com 1.10,2013-10-27 02:24:00,
2013-10-26 22:39:00,45.4,32.0,29.88,SE,142,0.0,7.0,59,0.00,,,0.00,weatherlink.com 1.10,2013-10-27 02:39:00,
2013-10-26 22:54:00,45.1,32.0,29.87,WNW,288,1.0,4.0,60,0.00,,,0.00,weatherlink.com 1.10,2013-10-27 02:54:00,
2013-10-26 23:09:00,45.1,32.0,29.87,SSE,163,0.0,8.0,60,0.00,,,0.00,weatherlink.com 1.10,2013-10-27 03:09:00,
2013-10-26 23:24:00,44.8,31.0,29.87,West,278,1.0,3.0,60,0.00,,,0.00,weatherlink.com 1.10,2013-10-27 03:24:00,
2013-10-26 23:40:00,44.7,32.0,29.86,SW,236,6.0,8.0,61,0.00,,,0.00,weatherlink.com 1.10,2013-10-27 03:40:00,
2013-10-26 23:54:00,44.9,32.0,29.86,ENE,63,2.0,14.0,62,0.00,,,0.00,weatherlink.com 1.10,2013-10-27 03:54:00,